sensor_id;sensor_type;location;lat;lon;timestamp;P1;durP1;ratioP1;P2;durP2;ratioP2
79702;SDS011;69172;52.352;5.006;2023-04-25T00:02:07;20.70;;;3.00;;
79702;SDS011;69172;52.352;5.006;2023-04-25T00:04:33;14.43;;;2.97;;
79702;SDS011;69172;52.352;5.006;2023-04-25T00:06:59;13.27;;;3.45;;
79702;SDS011;69172;52.352;5.006;2023-04-25T00:09:27;16.48;;;3.15;;
79702;SDS011;69172;52.352;5.006;2023-04-25T00:11:53;13.75;;;3.60;;
79702;SDS011;69172;52.352;5.006;2023-04-25T00:14:18;10.30;;;2.00;;
79702;SDS011;69172;52.352;5.006;2023-04-25T00:16:43;15.65;;;2.90;;
79702;SDS011;69172;52.352;5.006;2023-04-25T00:19:09;14.23;;;2.55;;
79702;SDS011;69172;52.352;5.006;2023-04-25T00:21:35;14.40;;;2.97;;
79702;SDS011;69172;52.352;5.006;2023-04-25T00:24:02;18.15;;;3.95;;
79702;SDS011;69172;52.352;5.006;2023-04-25T00:26:28;11.32;;;2.13;;
79702;SDS011;69172;52.352;5.006;2023-04-25T00:28:53;12.60;;;2.75;;
79702;SDS011;69172;52.352;5.006;2023-04-25T00:31:19;15.10;;;3.00;;
79702;SDS011;69172;52.352;5.006;2023-04-25T00:33:44;12.50;;;2.15;;
79702;SDS011;69172;52.352;5.006;2023-04-25T00:36:10;11.68;;;3.63;;
79702;SDS011;69172;52.352;5.006;2023-04-25T00:38:36;11.00;;;1.95;;
79702;SDS011;69172;52.352;5.006;2023-04-25T00:41:03;14.95;;;2.60;;
79702;SDS011;69172;52.352;5.006;2023-04-25T00:43:31;13.88;;;3.50;;
79702;SDS011;69172;52.352;5.006;2023-04-25T00:45:57;11.68;;;2.38;;
79702;SDS011;69172;52.352;5.006;2023-04-25T00:48:25;7.18;;;1.92;;
79702;SDS011;69172;52.352;5.006;2023-04-25T00:50:54;10.23;;;2.63;;
79702;SDS011;69172;52.352;5.006;2023-04-25T00:53:22;12.05;;;2.15;;
79702;SDS011;69172;52.352;5.006;2023-04-25T00:55:48;11.48;;;2.58;;
79702;SDS011;69172;52.352;5.006;2023-04-25T00:58:18;8.45;;;2.50;;
79702;SDS011;69172;52.352;5.006;2023-04-25T01:00:48;15.00;;;2.10;;
79702;SDS011;69172;52.352;5.006;2023-04-25T01:03:15;10.38;;;2.40;;
79702;SDS011;69172;52.352;5.006;2023-04-25T01:05:42;13.00;;;2.58;;
79702;SDS011;69172;52.352;5.006;2023-04-25T01:08:08;16.83;;;2.33;;
79702;SDS011;69172;52.352;5.006;2023-04-25T01:10:34;15.95;;;2.85;;
79702;SDS011;69172;52.352;5.006;2023-04-25T01:13:00;14.70;;;2.50;;
79702;SDS011;69172;52.352;5.006;2023-04-25T01:15:26;11.75;;;1.77;;
79702;SDS011;69172;52.352;5.006;2023-04-25T01:17:51;12.02;;;2.55;;
79702;SDS011;69172;52.352;5.006;2023-04-25T01:20:18;18.50;;;2.53;;
79702;SDS011;69172;52.352;5.006;2023-04-25T01:22:46;8.20;;;2.17;;
79702;SDS011;69172;52.352;5.006;2023-04-25T01:25:11;12.25;;;2.83;;
79702;SDS011;69172;52.352;5.006;2023-04-25T01:27:37;13.10;;;3.15;;
79702;SDS011;69172;52.352;5.006;2023-04-25T01:30:03;15.05;;;2.10;;
79702;SDS011;69172;52.352;5.006;2023-04-25T01:32:29;13.23;;;2.63;;
79702;SDS011;69172;52.352;5.006;2023-04-25T01:35:03;8.95;;;1.75;;
79702;SDS011;69172;52.352;5.006;2023-04-25T01:37:42;16.13;;;2.17;;
79702;SDS011;69172;52.352;5.006;2023-04-25T01:40:09;14.20;;;2.70;;
79702;SDS011;69172;52.352;5.006;2023-04-25T01:42:36;11.10;;;2.25;;
79702;SDS011;69172;52.352;5.006;2023-04-25T01:45:05;18.67;;;2.55;;
79702;SDS011;69172;52.352;5.006;2023-04-25T01:47:31;13.15;;;3.05;;
79702;SDS011;69172;52.352;5.006;2023-04-25T01:49:57;10.98;;;2.60;;
79702;SDS011;69172;52.352;5.006;2023-04-25T01:52:22;12.77;;;2.65;;
79702;SDS011;69172;52.352;5.006;2023-04-25T01:54:48;12.88;;;2.35;;
79702;SDS011;69172;52.352;5.006;2023-04-25T01:57:15;12.32;;;2.28;;
79702;SDS011;69172;52.352;5.006;2023-04-25T01:59:41;10.70;;;2.70;;
79702;SDS011;69172;52.352;5.006;2023-04-25T02:02:08;16.48;;;2.35;;
79702;SDS011;69172;52.352;5.006;2023-04-25T02:04:33;15.85;;;2.53;;
79702;SDS011;69172;52.352;5.006;2023-04-25T02:06:58;11.52;;;2.35;;
79702;SDS011;69172;52.352;5.006;2023-04-25T02:09:25;13.57;;;2.20;;
79702;SDS011;69172;52.352;5.006;2023-04-25T02:11:50;20.50;;;2.47;;
79702;SDS011;69172;52.352;5.006;2023-04-25T02:14:15;13.45;;;2.20;;
79702;SDS011;69172;52.352;5.006;2023-04-25T02:16:41;15.40;;;2.22;;
79702;SDS011;69172;52.352;5.006;2023-04-25T02:19:08;13.48;;;1.75;;
79702;SDS011;69172;52.352;5.006;2023-04-25T02:21:35;14.27;;;2.38;;
79702;SDS011;69172;52.352;5.006;2023-04-25T02:24:01;13.32;;;3.05;;
79702;SDS011;69172;52.352;5.006;2023-04-25T02:26:27;13.48;;;2.35;;
79702;SDS011;69172;52.352;5.006;2023-04-25T02:28:52;15.50;;;2.45;;
79702;SDS011;69172;52.352;5.006;2023-04-25T02:31:17;15.57;;;2.20;;
79702;SDS011;69172;52.352;5.006;2023-04-25T02:33:43;13.10;;;2.20;;
79702;SDS011;69172;52.352;5.006;2023-04-25T02:36:09;15.50;;;2.10;;
79702;SDS011;69172;52.352;5.006;2023-04-25T02:38:34;9.20;;;1.88;;
79702;SDS011;69172;52.352;5.006;2023-04-25T02:40:59;9.57;;;2.95;;
79702;SDS011;69172;52.352;5.006;2023-04-25T02:43:25;14.68;;;2.60;;
79702;SDS011;69172;52.352;5.006;2023-04-25T02:45:50;12.25;;;2.50;;
79702;SDS011;69172;52.352;5.006;2023-04-25T02:48:16;10.10;;;1.83;;
79702;SDS011;69172;52.352;5.006;2023-04-25T02:50:42;12.32;;;1.85;;
79702;SDS011;69172;52.352;5.006;2023-04-25T02:53:07;10.07;;;1.70;;
79702;SDS011;69172;52.352;5.006;2023-04-25T02:55:33;8.45;;;2.08;;
79702;SDS011;69172;52.352;5.006;2023-04-25T02:57:58;9.93;;;2.30;;
79702;SDS011;69172;52.352;5.006;2023-04-25T03:00:23;12.98;;;1.90;;
79702;SDS011;69172;52.352;5.006;2023-04-25T03:02:49;11.55;;;3.58;;
79702;SDS011;69172;52.352;5.006;2023-04-25T03:05:14;11.80;;;2.42;;
79702;SDS011;69172;52.352;5.006;2023-04-25T03:07:40;11.38;;;2.22;;
79702;SDS011;69172;52.352;5.006;2023-04-25T03:10:08;11.23;;;1.80;;
79702;SDS011;69172;52.352;5.006;2023-04-25T03:12:34;7.13;;;1.67;;
79702;SDS011;69172;52.352;5.006;2023-04-25T03:14:59;8.35;;;1.65;;
79702;SDS011;69172;52.352;5.006;2023-04-25T03:17:25;8.38;;;1.63;;
79702;SDS011;69172;52.352;5.006;2023-04-25T03:19:50;8.10;;;1.90;;
79702;SDS011;69172;52.352;5.006;2023-04-25T03:22:15;6.18;;;1.70;;
79702;SDS011;69172;52.352;5.006;2023-04-25T03:24:41;7.82;;;1.50;;
79702;SDS011;69172;52.352;5.006;2023-04-25T03:27:06;7.72;;;1.33;;
79702;SDS011;69172;52.352;5.006;2023-04-25T03:29:31;8.98;;;2.33;;
79702;SDS011;69172;52.352;5.006;2023-04-25T03:31:56;6.60;;;1.10;;
79702;SDS011;69172;52.352;5.006;2023-04-25T03:34:22;8.30;;;1.50;;
79702;SDS011;69172;52.352;5.006;2023-04-25T03:36:48;11.10;;;1.90;;
79702;SDS011;69172;52.352;5.006;2023-04-25T03:39:14;6.72;;;1.52;;
79702;SDS011;69172;52.352;5.006;2023-04-25T03:41:39;10.68;;;2.13;;
79702;SDS011;69172;52.352;5.006;2023-04-25T03:44:05;7.25;;;1.65;;
79702;SDS011;69172;52.352;5.006;2023-04-25T03:46:30;11.05;;;1.40;;
79702;SDS011;69172;52.352;5.006;2023-04-25T03:48:55;7.40;;;1.38;;
79702;SDS011;69172;52.352;5.006;2023-04-25T03:51:21;11.02;;;2.25;;
79702;SDS011;69172;52.352;5.006;2023-04-25T03:53:47;12.57;;;2.25;;
79702;SDS011;69172;52.352;5.006;2023-04-25T03:56:13;9.10;;;2.33;;
79702;SDS011;69172;52.352;5.006;2023-04-25T03:58:38;8.95;;;1.83;;
79702;SDS011;69172;52.352;5.006;2023-04-25T04:01:04;9.25;;;2.05;;
79702;SDS011;69172;52.352;5.006;2023-04-25T04:03:32;11.05;;;1.50;;
79702;SDS011;69172;52.352;5.006;2023-04-25T04:06:00;6.72;;;1.58;;
79702;SDS011;69172;52.352;5.006;2023-04-25T04:08:25;3.65;;;1.15;;
79702;SDS011;69172;52.352;5.006;2023-04-25T04:10:50;8.05;;;1.77;;
79702;SDS011;69172;52.352;5.006;2023-04-25T04:13:16;6.93;;;1.35;;
79702;SDS011;69172;52.352;5.006;2023-04-25T04:15:41;11.45;;;1.90;;
79702;SDS011;69172;52.352;5.006;2023-04-25T04:18:07;8.63;;;1.58;;
79702;SDS011;69172;52.352;5.006;2023-04-25T04:20:32;8.40;;;1.40;;
79702;SDS011;69172;52.352;5.006;2023-04-25T04:22:57;6.22;;;1.40;;
79702;SDS011;69172;52.352;5.006;2023-04-25T04:25:23;7.95;;;2.05;;
79702;SDS011;69172;52.352;5.006;2023-04-25T04:27:49;8.35;;;1.35;;
79702;SDS011;69172;52.352;5.006;2023-04-25T04:30:19;8.13;;;1.38;;
79702;SDS011;69172;52.352;5.006;2023-04-25T04:32:45;9.25;;;1.35;;
79702;SDS011;69172;52.352;5.006;2023-04-25T04:35:10;12.02;;;1.40;;
79702;SDS011;69172;52.352;5.006;2023-04-25T04:37:36;8.98;;;1.50;;
79702;SDS011;69172;52.352;5.006;2023-04-25T04:40:02;6.70;;;1.17;;
79702;SDS011;69172;52.352;5.006;2023-04-25T04:42:30;5.88;;;1.23;;
79702;SDS011;69172;52.352;5.006;2023-04-25T04:44:55;13.00;;;1.95;;
79702;SDS011;69172;52.352;5.006;2023-04-25T04:47:20;8.60;;;1.63;;
79702;SDS011;69172;52.352;5.006;2023-04-25T04:49:48;10.85;;;1.55;;
79702;SDS011;69172;52.352;5.006;2023-04-25T04:52:14;7.22;;;1.50;;
79702;SDS011;69172;52.352;5.006;2023-04-25T04:54:39;9.15;;;2.00;;
79702;SDS011;69172;52.352;5.006;2023-04-25T04:57:05;10.27;;;1.38;;
79702;SDS011;69172;52.352;5.006;2023-04-25T04:59:30;13.63;;;1.88;;
79702;SDS011;69172;52.352;5.006;2023-04-25T05:01:56;10.40;;;1.73;;
79702;SDS011;69172;52.352;5.006;2023-04-25T05:04:21;7.75;;;1.52;;
79702;SDS011;69172;52.352;5.006;2023-04-25T05:06:46;9.82;;;1.85;;
79702;SDS011;69172;52.352;5.006;2023-04-25T05:09:12;9.73;;;2.13;;
79702;SDS011;69172;52.352;5.006;2023-04-25T05:11:37;10.68;;;1.60;;
79702;SDS011;69172;52.352;5.006;2023-04-25T05:14:03;10.00;;;1.88;;
79702;SDS011;69172;52.352;5.006;2023-04-25T05:16:28;7.22;;;1.58;;
79702;SDS011;69172;52.352;5.006;2023-04-25T05:18:53;6.60;;;1.90;;
79702;SDS011;69172;52.352;5.006;2023-04-25T05:21:19;9.75;;;1.67;;
79702;SDS011;69172;52.352;5.006;2023-04-25T05:23:44;12.95;;;2.70;;
79702;SDS011;69172;52.352;5.006;2023-04-25T05:26:09;11.13;;;2.40;;
79702;SDS011;69172;52.352;5.006;2023-04-25T05:28:39;12.13;;;2.35;;
79702;SDS011;69172;52.352;5.006;2023-04-25T05:31:05;12.13;;;2.20;;
79702;SDS011;69172;52.352;5.006;2023-04-25T05:33:31;7.40;;;1.77;;
79702;SDS011;69172;52.352;5.006;2023-04-25T05:35:57;12.65;;;2.33;;
79702;SDS011;69172;52.352;5.006;2023-04-25T05:38:22;10.60;;;2.17;;
79702;SDS011;69172;52.352;5.006;2023-04-25T05:40:54;12.07;;;2.60;;
79702;SDS011;69172;52.352;5.006;2023-04-25T05:43:20;13.77;;;2.10;;
79702;SDS011;69172;52.352;5.006;2023-04-25T05:45:46;14.32;;;2.03;;
79702;SDS011;69172;52.352;5.006;2023-04-25T05:48:12;6.75;;;1.70;;
79702;SDS011;69172;52.352;5.006;2023-04-25T05:50:38;14.77;;;1.90;;
79702;SDS011;69172;52.352;5.006;2023-04-25T05:53:03;9.55;;;1.98;;
79702;SDS011;69172;52.352;5.006;2023-04-25T05:55:30;9.68;;;1.88;;
79702;SDS011;69172;52.352;5.006;2023-04-25T05:57:55;11.82;;;1.80;;
79702;SDS011;69172;52.352;5.006;2023-04-25T06:00:21;9.40;;;1.77;;
79702;SDS011;69172;52.352;5.006;2023-04-25T06:02:47;12.63;;;2.03;;
79702;SDS011;69172;52.352;5.006;2023-04-25T06:05:13;7.22;;;1.65;;
79702;SDS011;69172;52.352;5.006;2023-04-25T06:07:38;16.83;;;2.90;;
79702;SDS011;69172;52.352;5.006;2023-04-25T06:10:05;12.70;;;1.98;;
79702;SDS011;69172;52.352;5.006;2023-04-25T06:12:34;10.65;;;2.15;;
79702;SDS011;69172;52.352;5.006;2023-04-25T06:15:00;14.82;;;2.58;;
79702;SDS011;69172;52.352;5.006;2023-04-25T06:17:37;6.70;;;1.55;;
79702;SDS011;69172;52.352;5.006;2023-04-25T06:20:10;10.32;;;1.45;;
79702;SDS011;69172;52.352;5.006;2023-04-25T06:22:41;9.50;;;1.95;;
79702;SDS011;69172;52.352;5.006;2023-04-25T06:25:07;9.77;;;1.63;;
79702;SDS011;69172;52.352;5.006;2023-04-25T06:27:34;11.00;;;1.70;;
79702;SDS011;69172;52.352;5.006;2023-04-25T06:30:01;11.10;;;2.10;;
79702;SDS011;69172;52.352;5.006;2023-04-25T06:32:29;7.40;;;1.83;;
79702;SDS011;69172;52.352;5.006;2023-04-25T06:34:55;12.60;;;1.50;;
79702;SDS011;69172;52.352;5.006;2023-04-25T06:37:29;9.90;;;1.42;;
79702;SDS011;69172;52.352;5.006;2023-04-25T06:39:54;10.43;;;1.63;;
79702;SDS011;69172;52.352;5.006;2023-04-25T06:42:19;11.18;;;1.73;;
79702;SDS011;69172;52.352;5.006;2023-04-25T06:44:45;9.80;;;1.73;;
79702;SDS011;69172;52.352;5.006;2023-04-25T06:47:10;6.65;;;1.38;;
79702;SDS011;69172;52.352;5.006;2023-04-25T06:49:35;11.77;;;2.10;;
79702;SDS011;69172;52.352;5.006;2023-04-25T06:52:01;8.02;;;1.45;;
79702;SDS011;69172;52.352;5.006;2023-04-25T06:54:26;4.35;;;1.20;;
79702;SDS011;69172;52.352;5.006;2023-04-25T06:56:54;10.02;;;1.30;;
79702;SDS011;69172;52.352;5.006;2023-04-25T06:59:20;10.10;;;1.50;;
79702;SDS011;69172;52.352;5.006;2023-04-25T07:01:46;8.68;;;1.52;;
79702;SDS011;69172;52.352;5.006;2023-04-25T07:04:11;5.05;;;1.17;;
79702;SDS011;69172;52.352;5.006;2023-04-25T07:06:37;8.13;;;1.30;;
79702;SDS011;69172;52.352;5.006;2023-04-25T07:09:07;9.65;;;1.50;;
79702;SDS011;69172;52.352;5.006;2023-04-25T07:11:35;10.30;;;1.50;;
79702;SDS011;69172;52.352;5.006;2023-04-25T07:14:01;8.88;;;1.33;;
79702;SDS011;69172;52.352;5.006;2023-04-25T07:16:27;6.65;;;1.20;;
79702;SDS011;69172;52.352;5.006;2023-04-25T07:18:52;10.75;;;1.40;;
79702;SDS011;69172;52.352;5.006;2023-04-25T07:21:17;6.13;;;0.95;;
79702;SDS011;69172;52.352;5.006;2023-04-25T07:23:43;7.47;;;1.10;;
79702;SDS011;69172;52.352;5.006;2023-04-25T07:26:08;7.05;;;1.35;;
79702;SDS011;69172;52.352;5.006;2023-04-25T07:28:34;10.82;;;1.42;;
79702;SDS011;69172;52.352;5.006;2023-04-25T07:30:59;10.43;;;1.63;;
79702;SDS011;69172;52.352;5.006;2023-04-25T07:33:24;8.88;;;1.80;;
79702;SDS011;69172;52.352;5.006;2023-04-25T07:35:50;7.13;;;1.08;;
79702;SDS011;69172;52.352;5.006;2023-04-25T07:38:15;12.18;;;2.20;;
79702;SDS011;69172;52.352;5.006;2023-04-25T07:40:41;7.50;;;1.55;;
79702;SDS011;69172;52.352;5.006;2023-04-25T07:43:06;12.57;;;2.30;;
79702;SDS011;69172;52.352;5.006;2023-04-25T07:45:31;14.50;;;2.00;;
79702;SDS011;69172;52.352;5.006;2023-04-25T07:47:57;6.38;;;1.77;;
79702;SDS011;69172;52.352;5.006;2023-04-25T07:50:22;10.40;;;1.60;;
79702;SDS011;69172;52.352;5.006;2023-04-25T07:52:48;13.10;;;1.52;;
79702;SDS011;69172;52.352;5.006;2023-04-25T07:55:13;8.95;;;1.38;;
79702;SDS011;69172;52.352;5.006;2023-04-25T07:57:38;4.70;;;0.90;;
79702;SDS011;69172;52.352;5.006;2023-04-25T08:00:11;3.70;;;0.70;;
79702;SDS011;69172;52.352;5.006;2023-04-25T08:02:37;2.10;;;0.43;;
79702;SDS011;69172;52.352;5.006;2023-04-25T08:05:03;3.60;;;0.52;;
79702;SDS011;69172;52.352;5.006;2023-04-25T08:07:28;3.38;;;0.60;;
79702;SDS011;69172;52.352;5.006;2023-04-25T08:09:54;5.82;;;0.80;;
79702;SDS011;69172;52.352;5.006;2023-04-25T08:12:20;3.03;;;0.73;;
79702;SDS011;69172;52.352;5.006;2023-04-25T08:14:45;6.88;;;1.10;;
79702;SDS011;69172;52.352;5.006;2023-04-25T08:17:10;4.90;;;0.93;;
79702;SDS011;69172;52.352;5.006;2023-04-25T08:19:36;7.65;;;1.27;;
79702;SDS011;69172;52.352;5.006;2023-04-25T08:22:01;7.13;;;1.10;;
79702;SDS011;69172;52.352;5.006;2023-04-25T08:24:26;4.43;;;0.73;;
79702;SDS011;69172;52.352;5.006;2023-04-25T08:26:52;7.03;;;1.25;;
79702;SDS011;69172;52.352;5.006;2023-04-25T08:29:17;4.78;;;0.95;;
79702;SDS011;69172;52.352;5.006;2023-04-25T08:31:43;7.63;;;1.10;;
79702;SDS011;69172;52.352;5.006;2023-04-25T08:34:08;8.52;;;1.13;;
79702;SDS011;69172;52.352;5.006;2023-04-25T08:36:34;3.75;;;1.00;;
79702;SDS011;69172;52.352;5.006;2023-04-25T08:39:00;6.85;;;0.82;;
79702;SDS011;69172;52.352;5.006;2023-04-25T08:41:25;5.72;;;1.38;;
79702;SDS011;69172;52.352;5.006;2023-04-25T08:43:52;6.47;;;1.23;;
79702;SDS011;69172;52.352;5.006;2023-04-25T08:46:18;7.00;;;1.17;;
79702;SDS011;69172;52.352;5.006;2023-04-25T08:48:44;6.43;;;1.00;;
79702;SDS011;69172;52.352;5.006;2023-04-25T08:51:10;4.72;;;1.08;;
79702;SDS011;69172;52.352;5.006;2023-04-25T08:53:41;5.55;;;0.90;;
79702;SDS011;69172;52.352;5.006;2023-04-25T08:56:08;4.55;;;0.70;;
79702;SDS011;69172;52.352;5.006;2023-04-25T08:58:35;4.10;;;0.75;;
79702;SDS011;69172;52.352;5.006;2023-04-25T09:01:00;6.22;;;1.08;;
79702;SDS011;69172;52.352;5.006;2023-04-25T09:03:26;4.88;;;1.05;;
79702;SDS011;69172;52.352;5.006;2023-04-25T09:05:51;5.45;;;2.17;;
79702;SDS011;69172;52.352;5.006;2023-04-25T09:08:17;5.55;;;0.85;;
79702;SDS011;69172;52.352;5.006;2023-04-25T09:10:43;9.23;;;0.80;;
79702;SDS011;69172;52.352;5.006;2023-04-25T09:13:12;4.72;;;1.00;;
79702;SDS011;69172;52.352;5.006;2023-04-25T09:15:49;5.15;;;0.65;;
79702;SDS011;69172;52.352;5.006;2023-04-25T09:20:50;8.52;;;0.93;;
79702;SDS011;69172;52.352;5.006;2023-04-25T09:23:17;7.00;;;0.80;;
79702;SDS011;69172;52.352;5.006;2023-04-25T09:25:46;4.45;;;0.95;;
79702;SDS011;69172;52.352;5.006;2023-04-25T09:28:16;7.72;;;1.08;;
79702;SDS011;69172;52.352;5.006;2023-04-25T09:30:41;7.03;;;1.08;;
79702;SDS011;69172;52.352;5.006;2023-04-25T09:33:07;7.07;;;1.00;;
79702;SDS011;69172;52.352;5.006;2023-04-25T09:35:35;4.68;;;0.70;;
79702;SDS011;69172;52.352;5.006;2023-04-25T09:38:06;6.28;;;1.05;;
79702;SDS011;69172;52.352;5.006;2023-04-25T09:40:33;3.22;;;0.60;;
79702;SDS011;69172;52.352;5.006;2023-04-25T09:42:58;4.07;;;0.73;;
79702;SDS011;69172;52.352;5.006;2023-04-25T09:45:24;6.10;;;0.80;;
79702;SDS011;69172;52.352;5.006;2023-04-25T09:47:49;4.50;;;0.73;;
79702;SDS011;69172;52.352;5.006;2023-04-25T09:50:16;5.05;;;0.88;;
79702;SDS011;69172;52.352;5.006;2023-04-25T09:52:44;5.78;;;1.15;;
79702;SDS011;69172;52.352;5.006;2023-04-25T09:55:10;5.47;;;1.00;;
79702;SDS011;69172;52.352;5.006;2023-04-25T09:57:36;4.72;;;0.88;;
79702;SDS011;69172;52.352;5.006;2023-04-25T10:00:05;13.52;;;1.55;;
79702;SDS011;69172;52.352;5.006;2023-04-25T10:02:34;7.75;;;1.38;;
79702;SDS011;69172;52.352;5.006;2023-04-25T10:05:01;5.40;;;1.10;;
79702;SDS011;69172;52.352;5.006;2023-04-25T10:07:30;7.05;;;1.33;;
79702;SDS011;69172;52.352;5.006;2023-04-25T10:09:58;4.72;;;1.23;;
79702;SDS011;69172;52.352;5.006;2023-04-25T10:12:29;4.88;;;0.93;;
79702;SDS011;69172;52.352;5.006;2023-04-25T10:14:56;3.55;;;0.90;;
79702;SDS011;69172;52.352;5.006;2023-04-25T10:17:23;9.45;;;1.30;;
79702;SDS011;69172;52.352;5.006;2023-04-25T10:19:49;6.40;;;1.30;;
79702;SDS011;69172;52.352;5.006;2023-04-25T10:22:35;6.38;;;2.78;;
79702;SDS011;69172;52.352;5.006;2023-04-25T10:25:02;6.80;;;1.42;;
79702;SDS011;69172;52.352;5.006;2023-04-25T10:27:29;2.78;;;0.80;;
79702;SDS011;69172;52.352;5.006;2023-04-25T10:32:33;6.45;;;1.13;;
79702;SDS011;69172;52.352;5.006;2023-04-25T10:35:10;3.92;;;0.70;;
79702;SDS011;69172;52.352;5.006;2023-04-25T10:40:32;2.83;;;0.80;;
79702;SDS011;69172;52.352;5.006;2023-04-25T10:46:13;4.68;;;0.70;;
79702;SDS011;69172;52.352;5.006;2023-04-25T10:48:46;8.15;;;1.25;;
79702;SDS011;69172;52.352;5.006;2023-04-25T10:51:23;5.22;;;1.33;;
79702;SDS011;69172;52.352;5.006;2023-04-25T10:56:27;4.28;;;0.60;;
79702;SDS011;69172;52.352;5.006;2023-04-25T10:59:14;5.15;;;1.23;;
79702;SDS011;69172;52.352;5.006;2023-04-25T11:01:44;6.47;;;1.05;;
79702;SDS011;69172;52.352;5.006;2023-04-25T11:04:32;6.90;;;1.20;;
79702;SDS011;69172;52.352;5.006;2023-04-25T11:09:30;10.73;;;1.15;;
79702;SDS011;69172;52.352;5.006;2023-04-25T11:11:58;8.10;;;1.40;;
79702;SDS011;69172;52.352;5.006;2023-04-25T11:14:25;4.80;;;1.30;;
79702;SDS011;69172;52.352;5.006;2023-04-25T11:16:54;6.30;;;1.30;;
79702;SDS011;69172;52.352;5.006;2023-04-25T11:19:21;4.45;;;1.13;;
79702;SDS011;69172;52.352;5.006;2023-04-25T11:21:46;6.10;;;1.02;;
79702;SDS011;69172;52.352;5.006;2023-04-25T11:24:12;10.13;;;1.70;;
79702;SDS011;69172;52.352;5.006;2023-04-25T11:26:37;10.10;;;1.45;;
79702;SDS011;69172;52.352;5.006;2023-04-25T11:29:04;7.20;;;1.58;;
79702;SDS011;69172;52.352;5.006;2023-04-25T11:31:29;7.35;;;0.82;;
79702;SDS011;69172;52.352;5.006;2023-04-25T11:33:57;5.47;;;0.65;;
79702;SDS011;69172;52.352;5.006;2023-04-25T11:36:23;7.72;;;0.73;;
79702;SDS011;69172;52.352;5.006;2023-04-25T11:38:50;6.90;;;0.80;;
79702;SDS011;69172;52.352;5.006;2023-04-25T11:41:17;4.15;;;0.90;;
79702;SDS011;69172;52.352;5.006;2023-04-25T11:43:43;6.68;;;1.35;;
79702;SDS011;69172;52.352;5.006;2023-04-25T11:46:09;5.57;;;0.70;;
79702;SDS011;69172;52.352;5.006;2023-04-25T11:48:38;5.35;;;1.05;;
79702;SDS011;69172;52.352;5.006;2023-04-25T11:51:04;2.33;;;0.68;;
79702;SDS011;69172;52.352;5.006;2023-04-25T11:53:29;5.78;;;0.85;;
79702;SDS011;69172;52.352;5.006;2023-04-25T11:55:55;4.80;;;1.10;;
79702;SDS011;69172;52.352;5.006;2023-04-25T11:58:21;8.32;;;1.27;;
79702;SDS011;69172;52.352;5.006;2023-04-25T12:00:46;5.85;;;1.20;;
79702;SDS011;69172;52.352;5.006;2023-04-25T12:03:12;5.53;;;1.30;;
79702;SDS011;69172;52.352;5.006;2023-04-25T12:05:37;6.82;;;1.50;;
79702;SDS011;69172;52.352;5.006;2023-04-25T12:08:14;6.18;;;1.20;;
79702;SDS011;69172;52.352;5.006;2023-04-25T12:10:42;6.75;;;0.80;;
79702;SDS011;69172;52.352;5.006;2023-04-25T12:13:19;9.40;;;1.20;;
79702;SDS011;69172;52.352;5.006;2023-04-25T12:15:46;5.07;;;0.80;;
79702;SDS011;69172;52.352;5.006;2023-04-25T12:18:11;9.43;;;0.80;;
79702;SDS011;69172;52.352;5.006;2023-04-25T12:20:37;6.13;;;1.00;;
79702;SDS011;69172;52.352;5.006;2023-04-25T12:23:05;6.47;;;0.90;;
79702;SDS011;69172;52.352;5.006;2023-04-25T12:25:39;6.60;;;0.80;;
79702;SDS011;69172;52.352;5.006;2023-04-25T12:28:16;6.30;;;0.90;;
79702;SDS011;69172;52.352;5.006;2023-04-25T12:30:59;4.70;;;0.95;;
79702;SDS011;69172;52.352;5.006;2023-04-25T12:33:26;5.93;;;0.85;;
79702;SDS011;69172;52.352;5.006;2023-04-25T12:35:53;9.80;;;1.30;;
79702;SDS011;69172;52.352;5.006;2023-04-25T12:38:20;6.70;;;1.00;;
79702;SDS011;69172;52.352;5.006;2023-04-25T12:40:55;6.68;;;1.05;;
79702;SDS011;69172;52.352;5.006;2023-04-25T12:43:20;7.28;;;0.90;;
79702;SDS011;69172;52.352;5.006;2023-04-25T12:45:53;9.93;;;1.23;;
79702;SDS011;69172;52.352;5.006;2023-04-25T12:48:20;8.93;;;1.35;;
79702;SDS011;69172;52.352;5.006;2023-04-25T12:50:46;3.97;;;1.00;;
79702;SDS011;69172;52.352;5.006;2023-04-25T12:53:18;7.55;;;0.90;;
79702;SDS011;69172;52.352;5.006;2023-04-25T12:55:44;8.05;;;1.15;;
79702;SDS011;69172;52.352;5.006;2023-04-25T12:58:13;6.95;;;1.02;;
79702;SDS011;69172;52.352;5.006;2023-04-25T13:00:39;5.70;;;1.35;;
79702;SDS011;69172;52.352;5.006;2023-04-25T13:03:04;2.38;;;0.90;;
79702;SDS011;69172;52.352;5.006;2023-04-25T13:05:30;6.95;;;1.05;;
79702;SDS011;69172;52.352;5.006;2023-04-25T13:07:56;5.68;;;1.15;;
79702;SDS011;69172;52.352;5.006;2023-04-25T13:10:21;6.43;;;1.65;;
79702;SDS011;69172;52.352;5.006;2023-04-25T13:12:47;10.13;;;1.20;;
79702;SDS011;69172;52.352;5.006;2023-04-25T13:15:12;6.78;;;1.15;;
79702;SDS011;69172;52.352;5.006;2023-04-25T13:17:38;10.25;;;1.85;;
79702;SDS011;69172;52.352;5.006;2023-04-25T13:20:04;6.82;;;1.20;;
79702;SDS011;69172;52.352;5.006;2023-04-25T13:22:34;8.02;;;1.55;;
79702;SDS011;69172;52.352;5.006;2023-04-25T13:25:02;6.65;;;1.20;;
79702;SDS011;69172;52.352;5.006;2023-04-25T13:27:28;6.78;;;1.30;;
79702;SDS011;69172;52.352;5.006;2023-04-25T13:29:53;13.43;;;2.58;;
79702;SDS011;69172;52.352;5.006;2023-04-25T13:32:19;6.20;;;1.23;;
79702;SDS011;69172;52.352;5.006;2023-04-25T13:34:45;3.78;;;1.05;;
79702;SDS011;69172;52.352;5.006;2023-04-25T13:37:10;2.92;;;0.80;;
79702;SDS011;69172;52.352;5.006;2023-04-25T13:39:36;7.57;;;1.10;;
79702;SDS011;69172;52.352;5.006;2023-04-25T13:42:01;6.65;;;1.67;;
79702;SDS011;69172;52.352;5.006;2023-04-25T13:44:27;7.75;;;1.38;;
79702;SDS011;69172;52.352;5.006;2023-04-25T13:46:52;7.60;;;1.38;;
79702;SDS011;69172;52.352;5.006;2023-04-25T13:49:17;6.72;;;0.90;;
79702;SDS011;69172;52.352;5.006;2023-04-25T13:51:42;7.45;;;1.38;;
79702;SDS011;69172;52.352;5.006;2023-04-25T13:54:08;6.05;;;0.90;;
79702;SDS011;69172;52.352;5.006;2023-04-25T13:56:33;9.65;;;1.45;;
79702;SDS011;69172;52.352;5.006;2023-04-25T13:58:59;3.65;;;1.00;;
79702;SDS011;69172;52.352;5.006;2023-04-25T14:01:24;3.55;;;0.70;;
79702;SDS011;69172;52.352;5.006;2023-04-25T14:03:49;8.73;;;1.65;;
79702;SDS011;69172;52.352;5.006;2023-04-25T14:06:15;4.53;;;1.00;;
79702;SDS011;69172;52.352;5.006;2023-04-25T14:08:47;5.28;;;0.88;;
79702;SDS011;69172;52.352;5.006;2023-04-25T14:11:13;2.75;;;0.75;;
79702;SDS011;69172;52.352;5.006;2023-04-25T14:13:38;6.95;;;0.95;;
79702;SDS011;69172;52.352;5.006;2023-04-25T14:16:04;6.32;;;1.40;;
79702;SDS011;69172;52.352;5.006;2023-04-25T14:18:30;4.15;;;1.00;;
79702;SDS011;69172;52.352;5.006;2023-04-25T14:20:55;7.72;;;1.02;;
79702;SDS011;69172;52.352;5.006;2023-04-25T14:23:21;8.02;;;1.40;;
79702;SDS011;69172;52.352;5.006;2023-04-25T14:25:46;10.27;;;1.40;;
79702;SDS011;69172;52.352;5.006;2023-04-25T14:28:12;5.65;;;1.13;;
79702;SDS011;69172;52.352;5.006;2023-04-25T14:30:37;6.57;;;1.05;;
79702;SDS011;69172;52.352;5.006;2023-04-25T14:33:03;4.55;;;0.77;;
79702;SDS011;69172;52.352;5.006;2023-04-25T14:35:28;4.57;;;0.80;;
79702;SDS011;69172;52.352;5.006;2023-04-25T14:37:54;3.28;;;0.60;;
79702;SDS011;69172;52.352;5.006;2023-04-25T14:40:28;5.82;;;0.90;;
79702;SDS011;69172;52.352;5.006;2023-04-25T14:42:58;4.93;;;1.35;;
79702;SDS011;69172;52.352;5.006;2023-04-25T14:45:23;9.82;;;1.25;;
79702;SDS011;69172;52.352;5.006;2023-04-25T14:47:48;7.65;;;1.10;;
79702;SDS011;69172;52.352;5.006;2023-04-25T14:50:15;10.57;;;1.35;;
79702;SDS011;69172;52.352;5.006;2023-04-25T14:52:40;5.22;;;0.90;;
79702;SDS011;69172;52.352;5.006;2023-04-25T14:55:05;5.78;;;1.60;;
79702;SDS011;69172;52.352;5.006;2023-04-25T14:57:33;4.32;;;1.27;;